sensor_id;sensor_type;location;lat;lon;timestamp;temperature;humidity
46766;DHT22;32527;51.986;5.842;2023-02-23T00:01:58;7.80;99.90
46766;DHT22;32527;51.986;5.842;2023-02-23T00:04:33;7.90;99.90
46766;DHT22;32527;51.986;5.842;2023-02-23T00:06:58;7.80;99.90
46766;DHT22;32527;51.986;5.842;2023-02-23T01:19:09;7.80;99.90
46766;DHT22;32527;51.986;5.842;2023-02-23T01:21:38;7.80;99.90
46766;DHT22;32527;51.986;5.842;2023-02-23T01:24:05;8.90;99.90
46766;DHT22;32527;51.986;5.842;2023-02-23T01:26:36;7.80;99.90
46766;DHT22;32527;51.986;5.842;2023-02-23T01:29:14;7.80;99.90
46766;DHT22;32527;51.986;5.842;2023-02-23T01:31:43;7.70;99.90
46766;DHT22;32527;51.986;5.842;2023-02-23T01:34:10;8.00;99.90
46766;DHT22;32527;51.986;5.842;2023-02-23T01:36:38;7.70;99.90
46766;DHT22;32527;51.986;5.842;2023-02-23T01:39:06;7.70;99.90
46766;DHT22;32527;51.986;5.842;2023-02-23T01:41:34;7.70;99.90
46766;DHT22;32527;51.986;5.842;2023-02-23T01:45:15;7.80;99.90
46766;DHT22;32527;51.986;5.842;2023-02-23T01:46:54;7.70;99.90
46766;DHT22;32527;51.986;5.842;2023-02-23T01:49:23;7.80;99.90
46766;DHT22;32527;51.986;5.842;2023-02-23T01:51:58;9.00;99.90
46766;DHT22;32527;51.986;5.842;2023-02-23T01:54:29;7.80;99.90
46766;DHT22;32527;51.986;5.842;2023-02-23T01:56:59;7.80;99.90
46766;DHT22;32527;51.986;5.842;2023-02-23T01:59:38;7.80;99.90
46766;DHT22;32527;51.986;5.842;2023-02-23T02:02:06;7.80;99.90
46766;DHT22;32527;51.986;5.842;2023-02-23T02:04:35;7.80;99.90
46766;DHT22;32527;51.986;5.842;2023-02-23T02:07:30;7.80;99.90
46766;DHT22;32527;51.986;5.842;2023-02-23T02:09:57;7.60;99.90
46766;DHT22;32527;51.986;5.842;2023-02-23T02:12:53;7.80;99.90
46766;DHT22;32527;51.986;5.842;2023-02-23T02:15:23;7.70;99.90
46766;DHT22;32527;51.986;5.842;2023-02-23T02:43:30;7.70;99.90
46766;DHT22;32527;51.986;5.842;2023-02-23T02:49:01;7.70;99.90
46766;DHT22;32527;51.986;5.842;2023-02-23T02:51:40;7.80;99.90
46766;DHT22;32527;51.986;5.842;2023-02-23T02:54:35;7.70;99.90
46766;DHT22;32527;51.986;5.842;2023-02-23T02:57:02;7.70;99.90
46766;DHT22;32527;51.986;5.842;2023-02-23T02:59:30;7.70;99.90
46766;DHT22;32527;51.986;5.842;2023-02-23T03:02:18;7.70;99.90
46766;DHT22;32527;51.986;5.842;2023-02-23T03:05:16;7.70;99.90
46766;DHT22;32527;51.986;5.842;2023-02-23T03:11:13;7.60;99.90
46766;DHT22;32527;51.986;5.842;2023-02-23T03:14:04;8.00;99.90
46766;DHT22;32527;51.986;5.842;2023-02-23T03:20:02;7.50;99.90
46766;DHT22;32527;51.986;5.842;2023-02-23T03:22:59;7.60;99.90
46766;DHT22;32527;51.986;5.842;2023-02-23T03:26:11;7.70;99.90
46766;DHT22;32527;51.986;5.842;2023-02-23T03:29:17;7.60;99.90
46766;DHT22;32527;51.986;5.842;2023-02-23T03:32:21;7.60;99.90
46766;DHT22;32527;51.986;5.842;2023-02-23T03:35:29;7.60;99.90
46766;DHT22;32527;51.986;5.842;2023-02-23T03:38:29;7.60;99.90
46766;DHT22;32527;51.986;5.842;2023-02-23T03:41:17;7.60;99.90
46766;DHT22;32527;51.986;5.842;2023-02-23T03:44:08;7.60;99.90
46766;DHT22;32527;51.986;5.842;2023-02-23T03:46:54;7.60;99.90
46766;DHT22;32527;51.986;5.842;2023-02-23T03:49:41;7.60;99.90
46766;DHT22;32527;51.986;5.842;2023-02-23T03:52:35;8.80;99.90
46766;DHT22;32527;51.986;5.842;2023-02-23T03:55:26;7.60;99.90
46766;DHT22;32527;51.986;5.842;2023-02-23T03:58:16;7.50;99.90
46766;DHT22;32527;51.986;5.842;2023-02-23T04:01:03;7.50;99.90
46766;DHT22;32527;51.986;5.842;2023-02-23T04:03:50;7.50;99.90
46766;DHT22;32527;51.986;5.842;2023-02-23T04:06:39;7.50;99.90
46766;DHT22;32527;51.986;5.842;2023-02-23T04:09:24;7.40;99.90
46766;DHT22;32527;51.986;5.842;2023-02-23T04:12:20;8.40;99.90
46766;DHT22;32527;51.986;5.842;2023-02-23T04:15:26;7.40;99.90
46766;DHT22;32527;51.986;5.842;2023-02-23T04:17:54;7.40;99.90
46766;DHT22;32527;51.986;5.842;2023-02-23T04:25:14;7.30;99.90
46766;DHT22;32527;51.986;5.842;2023-02-23T04:30:07;7.10;99.90
46766;DHT22;32527;51.986;5.842;2023-02-23T04:32:36;7.30;99.90
46766;DHT22;32527;51.986;5.842;2023-02-23T04:35:02;7.30;99.90
46766;DHT22;32527;51.986;5.842;2023-02-23T04:42:20;7.30;99.90
46766;DHT22;32527;51.986;5.842;2023-02-23T04:44:46;7.30;99.90
46766;DHT22;32527;51.986;5.842;2023-02-23T04:47:14;7.30;99.90
46766;DHT22;32527;51.986;5.842;2023-02-23T04:49:40;7.30;99.90
46766;DHT22;32527;51.986;5.842;2023-02-23T04:52:06;9.10;99.90
46766;DHT22;32527;51.986;5.842;2023-02-23T04:56:58;7.30;99.90
46766;DHT22;32527;51.986;5.842;2023-02-23T04:59:23;7.30;99.90
46766;DHT22;32527;51.986;5.842;2023-02-23T05:01:49;7.30;99.90
46766;DHT22;32527;51.986;5.842;2023-02-23T05:04:14;7.30;99.90
46766;DHT22;32527;51.986;5.842;2023-02-23T05:09:07;7.20;99.90
46766;DHT22;32527;51.986;5.842;2023-02-23T05:11:32;8.40;99.90
46766;DHT22;32527;51.986;5.842;2023-02-23T05:26:11;7.20;99.90
46766;DHT22;32527;51.986;5.842;2023-02-23T05:28:38;7.20;99.90
46766;DHT22;32527;51.986;5.842;2023-02-23T05:31:05;7.10;99.90
46766;DHT22;32527;51.986;5.842;2023-02-23T05:33:32;7.20;99.90
46766;DHT22;32527;51.986;5.842;2023-02-23T05:48:10;7.10;99.90
46766;DHT22;32527;51.986;5.842;2023-02-23T05:50:36;7.20;99.90
46766;DHT22;32527;51.986;5.842;2023-02-23T05:53:03;7.20;99.90
46766;DHT22;32527;51.986;5.842;2023-02-23T05:55:28;7.20;99.90
46766;DHT22;32527;51.986;5.842;2023-02-23T05:57:54;7.10;99.90
46766;DHT22;32527;51.986;5.842;2023-02-23T06:00:20;7.10;99.90
46766;DHT22;32527;51.986;5.842;2023-02-23T06:05:12;7.10;99.90
46766;DHT22;32527;51.986;5.842;2023-02-23T06:07:38;7.10;99.90
46766;DHT22;32527;51.986;5.842;2023-02-23T06:10:05;7.00;99.90
46766;DHT22;32527;51.986;5.842;2023-02-23T06:12:31;7.10;99.90
46766;DHT22;32527;51.986;5.842;2023-02-23T06:14:56;7.10;99.90
46766;DHT22;32527;51.986;5.842;2023-02-23T06:17:23;7.20;99.90
46766;DHT22;32527;51.986;5.842;2023-02-23T06:19:49;7.10;99.90
46766;DHT22;32527;51.986;5.842;2023-02-23T06:22:15;7.00;99.90
46766;DHT22;32527;51.986;5.842;2023-02-23T06:29:34;7.10;99.90
46766;DHT22;32527;51.986;5.842;2023-02-23T06:32:01;7.10;99.90
46766;DHT22;32527;51.986;5.842;2023-02-23T06:34:27;7.10;99.90
46766;DHT22;32527;51.986;5.842;2023-02-23T06:39:19;7.10;99.90
46766;DHT22;32527;51.986;5.842;2023-02-23T06:44:11;7.10;99.90
46766;DHT22;32527;51.986;5.842;2023-02-23T06:46:37;7.10;99.90
46766;DHT22;32527;51.986;5.842;2023-02-23T06:49:03;7.10;99.90
46766;DHT22;32527;51.986;5.842;2023-02-23T06:51:29;9.00;99.90
46766;DHT22;32527;51.986;5.842;2023-02-23T07:01:14;7.10;99.90
46766;DHT22;32527;51.986;5.842;2023-02-23T07:06:06;7.10;99.90
46766;DHT22;32527;51.986;5.842;2023-02-23T07:08:33;8.10;99.90
46766;DHT22;32527;51.986;5.842;2023-02-23T07:11:09;7.20;99.90
46766;DHT22;32527;51.986;5.842;2023-02-23T07:18:28;7.10;99.90
46766;DHT22;32527;51.986;5.842;2023-02-23T07:20:53;7.10;99.90
46766;DHT22;32527;51.986;5.842;2023-02-23T07:23:19;7.10;99.90
46766;DHT22;32527;51.986;5.842;2023-02-23T07:25:48;7.20;99.90
46766;DHT22;32527;51.986;5.842;2023-02-23T07:33:07;7.20;99.90
46766;DHT22;32527;51.986;5.842;2023-02-23T07:35:32;7.20;99.90
46766;DHT22;32527;51.986;5.842;2023-02-23T07:37:58;7.20;99.90
46766;DHT22;32527;51.986;5.842;2023-02-23T07:40:24;7.20;99.90
46766;DHT22;32527;51.986;5.842;2023-02-23T07:42:50;7.50;99.90
46766;DHT22;32527;51.986;5.842;2023-02-23T07:45:16;7.20;99.90
46766;DHT22;32527;51.986;5.842;2023-02-23T07:47:42;7.20;99.90
46766;DHT22;32527;51.986;5.842;2023-02-23T07:50:08;7.10;99.90
46766;DHT22;32527;51.986;5.842;2023-02-23T07:52:39;7.20;99.90
46766;DHT22;32527;51.986;5.842;2023-02-23T07:55:06;7.20;99.90
46766;DHT22;32527;51.986;5.842;2023-02-23T07:57:33;7.20;99.90
46766;DHT22;32527;51.986;5.842;2023-02-23T07:59:58;7.40;99.90
46766;DHT22;32527;51.986;5.842;2023-02-23T08:02:25;7.30;99.90
46766;DHT22;32527;51.986;5.842;2023-02-23T08:04:50;7.30;99.90
46766;DHT22;32527;51.986;5.842;2023-02-23T08:09:45;7.40;99.90
46766;DHT22;32527;51.986;5.842;2023-02-23T08:12:10;7.30;99.90
46766;DHT22;32527;51.986;5.842;2023-02-23T08:17:02;7.30;99.90
46766;DHT22;32527;51.986;5.842;2023-02-23T08:19:28;7.30;99.90
46766;DHT22;32527;51.986;5.842;2023-02-23T08:21:53;7.30;99.90
46766;DHT22;32527;51.986;5.842;2023-02-23T08:24:20;7.30;99.90
46766;DHT22;32527;51.986;5.842;2023-02-23T08:26:46;7.30;99.90
46766;DHT22;32527;51.986;5.842;2023-02-23T08:29:14;7.30;99.90
46766;DHT22;32527;51.986;5.842;2023-02-23T08:31:43;5.30;99.90
46766;DHT22;32527;51.986;5.842;2023-02-23T08:34:09;8.30;99.90
46766;DHT22;32527;51.986;5.842;2023-02-23T08:36:35;7.70;99.90
46766;DHT22;32527;51.986;5.842;2023-02-23T08:39:00;7.40;99.90
46766;DHT22;32527;51.986;5.842;2023-02-23T08:48:46;7.50;99.90
46766;DHT22;32527;51.986;5.842;2023-02-23T08:51:12;7.60;99.90
46766;DHT22;32527;51.986;5.842;2023-02-23T08:53:40;7.70;99.90
46766;DHT22;32527;51.986;5.842;2023-02-23T08:56:06;7.50;99.90
46766;DHT22;32527;51.986;5.842;2023-02-23T08:58:34;7.60;99.90
46766;DHT22;32527;51.986;5.842;2023-02-23T09:03:31;7.60;99.90
46766;DHT22;32527;51.986;5.842;2023-02-23T09:06:05;7.60;99.90
46766;DHT22;32527;51.986;5.842;2023-02-23T09:08:31;7.70;99.90
46766;DHT22;32527;51.986;5.842;2023-02-23T09:10:57;7.70;99.90
46766;DHT22;32527;51.986;5.842;2023-02-23T09:13:22;7.70;99.90
46766;DHT22;32527;51.986;5.842;2023-02-23T09:18:14;7.60;99.90
46766;DHT22;32527;51.986;5.842;2023-02-23T09:20:43;7.70;99.90
46766;DHT22;32527;51.986;5.842;2023-02-23T09:23:09;8.40;99.90
46766;DHT22;32527;51.986;5.842;2023-02-23T09:25:43;7.70;99.90
46766;DHT22;32527;51.986;5.842;2023-02-23T09:28:13;7.70;99.90
46766;DHT22;32527;51.986;5.842;2023-02-23T09:30:40;7.80;99.90
46766;DHT22;32527;51.986;5.842;2023-02-23T09:55:08;8.10;99.90
46766;DHT22;32527;51.986;5.842;2023-02-23T09:59:03;8.20;99.90
46766;DHT22;32527;51.986;5.842;2023-02-23T10:05:44;8.40;99.90
46766;DHT22;32527;51.986;5.842;2023-02-23T10:11:49;8.10;99.90
46766;DHT22;32527;51.986;5.842;2023-02-23T10:28:00;8.50;99.90
46766;DHT22;32527;51.986;5.842;2023-02-23T10:30:50;8.10;99.90
46766;DHT22;32527;51.986;5.842;2023-02-23T10:33:21;8.00;99.90
46766;DHT22;32527;51.986;5.842;2023-02-23T10:36:17;8.00;99.90
46766;DHT22;32527;51.986;5.842;2023-02-23T10:39:12;10.30;99.90
46766;DHT22;32527;51.986;5.842;2023-02-23T10:41:38;8.10;99.90
46766;DHT22;32527;51.986;5.842;2023-02-23T10:44:18;10.00;99.90
46766;DHT22;32527;51.986;5.842;2023-02-23T11:01:12;8.20;99.90
46766;DHT22;32527;51.986;5.842;2023-02-23T11:03:45;8.10;99.90
46766;DHT22;32527;51.986;5.842;2023-02-23T11:06:35;10.30;99.90
46766;DHT22;32527;51.986;5.842;2023-02-23T11:09:26;8.10;99.90
46766;DHT22;32527;51.986;5.842;2023-02-23T11:12:04;8.20;99.90
46766;DHT22;32527;51.986;5.842;2023-02-23T11:14:41;8.20;99.90
46766;DHT22;32527;51.986;5.842;2023-02-23T11:17:31;8.20;99.90
46766;DHT22;32527;51.986;5.842;2023-02-23T11:20:25;8.00;99.90
46766;DHT22;32527;51.986;5.842;2023-02-23T11:22:53;8.20;99.90
46766;DHT22;32527;51.986;5.842;2023-02-23T11:25:28;8.20;99.90
46766;DHT22;32527;51.986;5.842;2023-02-23T11:27:55;8.30;99.90
46766;DHT22;32527;51.986;5.842;2023-02-23T11:30:33;8.30;99.90
46766;DHT22;32527;51.986;5.842;2023-02-23T11:33:02;8.30;99.90
46766;DHT22;32527;51.986;5.842;2023-02-23T11:35:35;9.10;99.90
46766;DHT22;32527;51.986;5.842;2023-02-23T11:40:58;8.10;99.90
46766;DHT22;32527;51.986;5.842;2023-02-23T11:43:25;8.30;99.90
46766;DHT22;32527;51.986;5.842;2023-02-23T11:45:56;8.20;99.90
46766;DHT22;32527;51.986;5.842;2023-02-23T11:48:45;8.00;99.90
46766;DHT22;32527;51.986;5.842;2023-02-23T11:51:32;8.20;99.90
46766;DHT22;32527;51.986;5.842;2023-02-23T11:54:04;8.20;99.90
46766;DHT22;32527;51.986;5.842;2023-02-23T11:56:32;8.20;99.90
46766;DHT22;32527;51.986;5.842;2023-02-23T11:59:01;8.20;99.90
46766;DHT22;32527;51.986;5.842;2023-02-23T12:01:39;8.20;99.90
46766;DHT22;32527;51.986;5.842;2023-02-23T12:04:10;8.40;99.90
46766;DHT22;32527;51.986;5.842;2023-02-23T12:06:48;8.30;99.90
46766;DHT22;32527;51.986;5.842;2023-02-23T12:09:23;8.40;99.90
46766;DHT22;32527;51.986;5.842;2023-02-23T12:12:08;8.50;99.90
46766;DHT22;32527;51.986;5.842;2023-02-23T12:14:52;8.60;99.90
46766;DHT22;32527;51.986;5.842;2023-02-23T12:17:26;8.70;99.90
46766;DHT22;32527;51.986;5.842;2023-02-23T12:20:15;8.70;99.90
46766;DHT22;32527;51.986;5.842;2023-02-23T12:22:46;8.70;99.90
46766;DHT22;32527;51.986;5.842;2023-02-23T12:25:24;8.70;99.90
46766;DHT22;32527;51.986;5.842;2023-02-23T12:28:22;8.80;99.90
46766;DHT22;32527;51.986;5.842;2023-02-23T12:30:59;8.80;99.90
46766;DHT22;32527;51.986;5.842;2023-02-23T12:33:33;8.80;99.90
46766;DHT22;32527;51.986;5.842;2023-02-23T12:36:18;8.80;99.90
46766;DHT22;32527;51.986;5.842;2023-02-23T12:39:24;8.70;99.90
46766;DHT22;32527;51.986;5.842;2023-02-23T12:42:11;8.70;99.90
46766;DHT22;32527;51.986;5.842;2023-02-23T12:44:40;8.60;99.90
46766;DHT22;32527;51.986;5.842;2023-02-23T12:50:39;8.40;99.90
46766;DHT22;32527;51.986;5.842;2023-02-23T12:56:02;8.40;99.90
46766;DHT22;32527;51.986;5.842;2023-02-23T13:01:38;8.30;99.90
46766;DHT22;32527;51.986;5.842;2023-02-23T13:12:35;8.20;99.90
46766;DHT22;32527;51.986;5.842;2023-02-23T13:15:43;8.40;99.90
46766;DHT22;32527;51.986;5.842;2023-02-23T13:18:22;8.40;99.90
46766;DHT22;32527;51.986;5.842;2023-02-23T13:29:46;8.40;99.90
46766;DHT22;32527;51.986;5.842;2023-02-23T13:32:20;8.40;99.90
46766;DHT22;32527;51.986;5.842;2023-02-23T13:34:56;10.70;99.90
46766;DHT22;32527;51.986;5.842;2023-02-23T13:37:43;8.40;99.90
46766;DHT22;32527;51.986;5.842;2023-02-23T13:41:10;8.50;99.90
46766;DHT22;32527;51.986;5.842;2023-02-23T13:43:31;8.30;99.90
46766;DHT22;32527;51.986;5.842;2023-02-23T13:46:18;8.40;99.90
46766;DHT22;32527;51.986;5.842;2023-02-23T13:51:38;8.50;99.90
46766;DHT22;32527;51.986;5.842;2023-02-23T13:54:25;8.60;99.90
46766;DHT22;32527;51.986;5.842;2023-02-23T13:57:17;8.80;99.90
46766;DHT22;32527;51.986;5.842;2023-02-23T14:07:26;9.10;99.90
46766;DHT22;32527;51.986;5.842;2023-02-23T14:09:55;9.20;99.90
46766;DHT22;32527;51.986;5.842;2023-02-23T14:12:32;9.80;99.90
46766;DHT22;32527;51.986;5.842;2023-02-23T14:17:58;9.20;99.90
46766;DHT22;32527;51.986;5.842;2023-02-23T14:26:12;9.00;99.90
46766;DHT22;32527;51.986;5.842;2023-02-23T14:29:10;8.90;99.90
46766;DHT22;32527;51.986;5.842;2023-02-23T14:31:57;8.10;99.90
46766;DHT22;32527;51.986;5.842;2023-02-23T14:34:49;8.70;99.90
46766;DHT22;32527;51.986;5.842;2023-02-23T14:41:30;8.70;99.90
46766;DHT22;32527;51.986;5.842;2023-02-23T14:44:11;8.60;99.90
46766;DHT22;32527;51.986;5.842;2023-02-23T14:46:37;8.50;99.90
46766;DHT22;32527;51.986;5.842;2023-02-23T14:49:17;8.40;99.90
46766;DHT22;32527;51.986;5.842;2023-02-23T14:51:48;10.20;99.90
46766;DHT22;32527;51.986;5.842;2023-02-23T14:54:23;8.40;99.90
46766;DHT22;32527;51.986;5.842;2023-02-23T14:56:52;8.40;99.90
46766;DHT22;32527;51.986;5.842;2023-02-23T14:59:20;8.30;99.90
46766;DHT22;32527;51.986;5.842;2023-02-23T15:01:48;8.30;99.90
46766;DHT22;32527;51.986;5.842;2023-02-23T15:04:20;8.40;99.90
46766;DHT22;32527;51.986;5.842;2023-02-23T15:06:47;8.40;99.90
46766;DHT22;32527;51.986;5.842;2023-02-23T15:09:21;8.30;99.90
46766;DHT22;32527;51.986;5.842;2023-02-23T15:11:50;8.90;99.90
46766;DHT22;32527;51.986;5.842;2023-02-23T15:14:18;8.40;99.90
46766;DHT22;32527;51.986;5.842;2023-02-23T15:16:45;8.30;99.90
46766;DHT22;32527;51.986;5.842;2023-02-23T15:19:16;8.40;99.90
46766;DHT22;32527;51.986;5.842;2023-02-23T15:21:51;8.30;99.90
46766;DHT22;32527;51.986;5.842;2023-02-23T15:24:23;8.30;99.90
46766;DHT22;32527;51.986;5.842;2023-02-23T15:26:51;8.30;99.90
46766;DHT22;32527;51.986;5.842;2023-02-23T15:29:19;8.30;99.90
46766;DHT22;32527;51.986;5.842;2023-02-23T15:31:48;8.30;99.90
46766;DHT22;32527;51.986;5.842;2023-02-23T15:34:27;8.40;99.90
46766;DHT22;32527;51.986;5.842;2023-02-23T15:37:10;8.30;99.90
46766;DHT22;32527;51.986;5.842;2023-02-23T15:39:53;8.20;99.90
46766;DHT22;32527;51.986;5.842;2023-02-23T15:42:25;8.30;99.90
46766;DHT22;32527;51.986;5.842;2023-02-23T15:44:59;8.20;99.90
46766;DHT22;32527;51.986;5.842;2023-02-23T15:47:30;8.20;99.90
46766;DHT22;32527;51.986;5.842;2023-02-23T15:50:21;8.20;99.90
46766;DHT22;32527;51.986;5.842;2023-02-23T15:52:51;10.30;99.90
46766;DHT22;32527;51.986;5.842;2023-02-23T15:55:23;8.20;99.90
46766;DHT22;32527;51.986;5.842;2023-02-23T15:57:55;8.20;99.90
46766;DHT22;32527;51.986;5.842;2023-02-23T16:00:37;8.00;99.90
46766;DHT22;32527;51.986;5.842;2023-02-23T16:03:05;8.10;99.90
46766;DHT22;32527;51.986;5.842;2023-02-23T16:05:33;8.20;99.90
46766;DHT22;32527;51.986;5.842;2023-02-23T16:08:18;8.10;99.90
46766;DHT22;32527;51.986;5.842;2023-02-23T16:11:14;8.10;99.90
46766;DHT22;32527;51.986;5.842;2023-02-23T16:13:43;8.10;99.90
46766;DHT22;32527;51.986;5.842;2023-02-23T16:16:10;8.10;99.90
46766;DHT22;32527;51.986;5.842;2023-02-23T16:18:44;8.10;99.90
46766;DHT22;32527;51.986;5.842;2023-02-23T16:21:20;8.10;99.90
46766;DHT22;32527;51.986;5.842;2023-02-23T16:23:49;8.10;99.90
46766;DHT22;32527;51.986;5.842;2023-02-23T16:26:27;8.10;99.90
46766;DHT22;32527;51.986;5.842;2023-02-23T16:28:57;8.10;99.90
46766;DHT22;32527;51.986;5.842;2023-02-23T16:31:42;8.10;99.90
46766;DHT22;32527;51.986;5.842;2023-02-23T16:36:55;8.00;99.90
46766;DHT22;32527;51.986;5.842;2023-02-23T16:39:20;8.00;99.90
46766;DHT22;32527;51.986;5.842;2023-02-23T16:44:18;8.00;99.90
46766;DHT22;32527;51.986;5.842;2023-02-23T16:49:29;8.00;99.90
46766;DHT22;32527;51.986;5.842;2023-02-23T16:51:59;7.90;99.90
46766;DHT22;32527;51.986;5.842;2023-02-23T16:56:53;7.90;99.90
46766;DHT22;32527;51.986;5.842;2023-02-23T16:59:20;7.90;99.90
46766;DHT22;32527;51.986;5.842;2023-02-23T17:04:16;7.80;99.90
46766;DHT22;32527;51.986;5.842;2023-02-23T17:06:42;7.80;99.90
46766;DHT22;32527;51.986;5.842;2023-02-23T17:09:09;7.80;99.90
46766;DHT22;32527;51.986;5.842;2023-02-23T17:16:27;7.80;99.90
46766;DHT22;32527;51.986;5.842;2023-02-23T17:23:49;7.40;99.90
46766;DHT22;32527;51.986;5.842;2023-02-23T17:26:18;7.40;99.90
46766;DHT22;32527;51.986;5.842;2023-02-23T17:32:27;7.10;99.90
46766;DHT22;32527;51.986;5.842;2023-02-23T17:34:54;7.30;99.90
46766;DHT22;32527;51.986;5.842;2023-02-23T17:42:16;7.00;99.90
46766;DHT22;32527;51.986;5.842;2023-02-23T17:56:55;7.00;99.90
46766;DHT22;32527;51.986;5.842;2023-02-23T17:59:22;6.80;99.90
46766;DHT22;32527;51.986;5.842;2023-02-23T18:01:47;6.90;99.90
46766;DHT22;32527;51.986;5.842;2023-02-23T18:06:40;6.40;99.90
46766;DHT22;32527;51.986;5.842;2023-02-23T18:11:33;6.70;99.90
46766;DHT22;32527;51.986;5.842;2023-02-23T18:18:55;6.60;99.90
46766;DHT22;32527;51.986;5.842;2023-02-23T18:21:23;6.80;99.90
46766;DHT22;32527;51.986;5.842;2023-02-23T18:23:50;6.50;99.90
46766;DHT22;32527;51.986;5.842;2023-02-23T18:26:22;6.40;99.90
46766;DHT22;32527;51.986;5.842;2023-02-23T18:31:23;6.40;99.90
46766;DHT22;32527;51.986;5.842;2023-02-23T18:36:26;3.40;99.90
46766;DHT22;32527;51.986;5.842;2023-02-23T18:46:12;6.10;99.90
46766;DHT22;32527;51.986;5.842;2023-02-23T18:51:05;5.80;99.90
46766;DHT22;32527;51.986;5.842;2023-02-23T18:59:14;5.80;99.90
46766;DHT22;32527;51.986;5.842;2023-02-23T19:01:41;5.70;99.90
46766;DHT22;32527;51.986;5.842;2023-02-23T19:04:10;5.70;99.90
46766;DHT22;32527;51.986;5.842;2023-02-23T19:09:04;5.60;99.90
46766;DHT22;32527;51.986;5.842;2023-02-23T19:11:35;5.60;99.90
46766;DHT22;32527;51.986;5.842;2023-02-23T19:14:05;5.50;99.90
46766;DHT22;32527;51.986;5.842;2023-02-23T19:16:32;5.40;99.90
46766;DHT22;32527;51.986;5.842;2023-02-23T19:23:53;5.10;99.90
46766;DHT22;32527;51.986;5.842;2023-02-23T19:31:16;4.80;99.90
46766;DHT22;32527;51.986;5.842;2023-02-23T19:33:45;4.80;99.90
46766;DHT22;32527;51.986;5.842;2023-02-23T19:36:13;4.80;99.90
46766;DHT22;32527;51.986;5.842;2023-02-23T19:41:13;4.60;99.90
46766;DHT22;32527;51.986;5.842;2023-02-23T19:46:08;4.50;99.90
46766;DHT22;32527;51.986;5.842;2023-02-23T19:48:34;4.40;99.90
46766;DHT22;32527;51.986;5.842;2023-02-23T19:56:08;4.50;99.90
46766;DHT22;32527;51.986;5.842;2023-02-23T20:01:09;4.10;99.90
46766;DHT22;32527;51.986;5.842;2023-02-23T20:03:37;4.20;99.90
46766;DHT22;32527;51.986;5.842;2023-02-23T20:06:08;3.90;99.90
46766;DHT22;32527;51.986;5.842;2023-02-23T20:11:05;4.00;99.90
46766;DHT22;32527;51.986;5.842;2023-02-23T20:16:08;4.40;99.90
46766;DHT22;32527;51.986;5.842;2023-02-23T20:18:35;3.90;99.90
46766;DHT22;32527;51.986;5.842;2023-02-23T20:21:17;3.60;99.90
46766;DHT22;32527;51.986;5.842;2023-02-23T20:23:44;3.80;99.90
46766;DHT22;32527;51.986;5.842;2023-02-23T20:26:18;4.10;99.90
46766;DHT22;32527;51.986;5.842;2023-02-23T20:28:44;3.80;99.90
46766;DHT22;32527;51.986;5.842;2023-02-23T20:31:12;3.80;99.90
46766;DHT22;32527;51.986;5.842;2023-02-23T20:36:04;3.50;99.90
46766;DHT22;32527;51.986;5.842;2023-02-23T20:38:30;3.70;99.90
46766;DHT22;32527;51.986;5.842;2023-02-23T20:53:08;3.20;99.90
46766;DHT22;32527;51.986;5.842;2023-02-23T21:05:24;3.40;99.90
46766;DHT22;32527;51.986;5.842;2023-02-23T21:10:17;3.30;99.90
46766;DHT22;32527;51.986;5.842;2023-02-23T21:12:45;3.30;99.90
46766;DHT22;32527;51.986;5.842;2023-02-23T21:17:40;3.30;99.90
46766;DHT22;32527;51.986;5.842;2023-02-23T21:20:07;3.20;99.90
46766;DHT22;32527;51.986;5.842;2023-02-23T21:25:02;3.20;99.90
46766;DHT22;32527;51.986;5.842;2023-02-23T21:32:21;3.00;99.90
46766;DHT22;32527;51.986;5.842;2023-02-23T21:37:15;3.00;99.90
46766;DHT22;32527;51.986;5.842;2023-02-23T22:04:10;2.60;99.90
46766;DHT22;32527;51.986;5.842;2023-02-23T22:06:40;2.60;99.90
46766;DHT22;32527;51.986;5.842;2023-02-23T22:09:08;2.60;99.90
46766;DHT22;32527;51.986;5.842;2023-02-23T22:11:44;2.60;99.90
46766;DHT22;32527;51.986;5.842;2023-02-23T22:16:39;2.60;99.90
46766;DHT22;32527;51.986;5.842;2023-02-23T22:19:09;2.50;99.90
46766;DHT22;32527;51.986;5.842;2023-02-23T22:21:37;2.60;99.90
46766;DHT22;32527;51.986;5.842;2023-02-23T22:24:04;2.50;99.90
46766;DHT22;32527;51.986;5.842;2023-02-23T22:26:35;2.50;99.90
46766;DHT22;32527;51.986;5.842;2023-02-23T22:29:03;2.50;99.90
46766;DHT22;32527;51.986;5.842;2023-02-23T22:43:43;2.50;99.90
46766;DHT22;32527;51.986;5.842;2023-02-23T22:46:14;2.50;99.90
46766;DHT22;32527;51.986;5.842;2023-02-23T22:48:42;2.50;99.90
46766;DHT22;32527;51.986;5.842;2023-02-23T22:51:11;2.40;99.90
46766;DHT22;32527;51.986;5.842;2023-02-23T23:00:57;2.30;99.90
46766;DHT22;32527;51.986;5.842;2023-02-23T23:04:05;2.20;99.90
46766;DHT22;32527;51.986;5.842;2023-02-23T23:06:46;2.20;99.90
46766;DHT22;32527;51.986;5.842;2023-02-23T23:09:14;2.20;99.90
46766;DHT22;32527;51.986;5.842;2023-02-23T23:14:11;2.10;99.90
46766;DHT22;32527;51.986;5.842;2023-02-23T23:16:39;2.10;99.90
46766;DHT22;32527;51.986;5.842;2023-02-23T23:19:14;2.00;99.90
46766;DHT22;32527;51.986;5.842;2023-02-23T23:21:42;2.00;99.90
46766;DHT22;32527;51.986;5.842;2023-02-23T23:24:09;2.00;99.90
46766;DHT22;32527;51.986;5.842;2023-02-23T23:26:38;2.00;99.90
46766;DHT22;32527;51.986;5.842;2023-02-23T23:29:06;2.00;99.90
46766;DHT22;32527;51.986;5.842;2023-02-23T23:31:40;1.90;99.90
46766;DHT22;32527;51.986;5.842;2023-02-23T23:36:46;1.90;99.90
46766;DHT22;32527;51.986;5.842;2023-02-23T23:39:19;1.80;99.90
